Time;durP1;ratioP1;P1;durP2;ratioP2;P2;SDS_P1;SDS_P2;PMS_P1;PMS_P2;Temp;Humidity;BMP_temperature;BMP_pressure;BME280_temperature;BME280_humidity;BME280_pressure;Samples;Min_cycle;Max_cycle;Signal;HPM_P1;HPM_P2
2023/05/17 02:54:51;;;;;;;23.67;9.00;;;;;;;6.56;98.32;102418.69;6183972;23;20048;-78
2023/05/17 02:57:16;;;;;;;19.25;9.30;;;;;;;6.59;98.88;102418.81;6133759;23;20116;-78
2023/05/17 02:59:42;;;;;;;17.60;8.18;;;;;;;6.63;98.26;102418.91;6133356;23;20013;-78
2023/05/17 03:02:07;;;;;;;23.70;9.80;;;;;;;6.65;99.69;102415.53;6133697;23;20005;-79
2023/05/17 03:04:32;;;;;;;23.73;9.82;;;;;;;6.69;98.97;102427.75;6133036;23;20020;-79
2023/05/17 03:06:58;;;;;;;20.88;9.80;;;;;;;6.70;100.00;102423.47;6133431;23;20047;-78
2023/05/17 03:09:23;;;;;;;17.85;8.65;;;;;;;6.70;99.99;102424.34;6108657;23;20059;-79
2023/05/17 03:11:50;;;;;;;20.23;9.63;;;;;;;6.74;99.61;102436.63;6133462;23;20167;-78
2023/05/17 03:14:15;;;;;;;25.30;9.45;;;;;;;6.74;100.00;102425.31;6184532;23;20016;-78
2023/05/17 03:16:41;;;;;;;22.20;10.02;;;;;;;6.76;99.49;102434.06;6109191;23;20088;-78
2023/05/17 03:19:06;;;;;;;24.95;10.45;;;;;;;6.79;100.00;102436.75;6108856;23;20013;-78
2023/05/17 03:21:32;;;;;;;20.98;9.95;;;;;;;6.81;99.75;102434.19;6110427;23;20441;-78
2023/05/17 03:23:57;;;;;;;22.42;9.13;;;;;;;6.84;99.68;102434.28;6135515;23;20009;-77
2023/05/17 03:26:23;;;;;;;27.15;9.50;;;;;;;6.81;100.00;102432.47;6109940;23;20009;-78
2023/05/17 03:28:48;;;;;;;26.92;9.95;;;;;;;6.84;99.59;102439.47;6111523;23;20009;-78
2023/05/17 03:31:14;;;;;;;23.33;9.23;;;;;;;6.86;98.93;102441.31;6134979;23;20009;-78
2023/05/17 03:33:39;;;;;;;21.45;9.15;;;;;;;6.89;99.23;102446.59;6160403;23;20005;-78
2023/05/17 03:36:06;;;;;;;19.50;9.32;;;;;;;6.86;99.14;102450.84;6110328;23;20012;-79
2023/05/17 03:38:31;;;;;;;23.02;9.18;;;;;;;6.88;98.97;102454.38;6111722;23;20016;-79
2023/05/17 03:40:57;;;;;;;22.52;9.13;;;;;;;6.84;98.71;102444.69;6134557;23;20343;-78
2023/05/17 03:43:22;;;;;;;20.55;8.85;;;;;;;6.86;98.51;102451.72;6135374;23;20012;-79
2023/05/17 03:45:48;;;;;;;21.23;8.95;;;;;;;6.80;98.42;102454.16;6135214;23;20101;-78
2023/05/17 03:48:13;;;;;;;23.80;9.10;;;;;;;6.76;97.78;102455.78;6135652;23;20019;-78
2023/05/17 03:50:42;;;;;;;22.55;9.70;;;;;;;6.72;97.68;102460.84;6159253;23;20005;-74
2023/05/17 03:53:08;;;;;;;20.83;9.57;;;;;;;6.69;98.21;102461.63;6135401;23;20443;-72
2023/05/17 03:55:34;;;;;;;19.02;8.70;;;;;;;6.69;97.59;102465.97;6158824;23;20428;-72
2023/05/17 03:57:59;;;;;;;19.13;8.48;;;;;;;6.65;97.38;102466.72;6110712;23;20088;-72
2023/05/17 04:00:25;;;;;;;17.45;8.52;;;;;;;6.62;96.90;102466.63;6158953;23;20005;-72
2023/05/17 04:02:50;;;;;;;21.38;9.50;;;;;;;6.66;96.88;102464.16;6110585;23;20009;-72
2023/05/17 04:05:17;;;;;;;20.63;9.57;;;;;;;6.64;97.43;102471.06;6134906;23;20108;-72
2023/05/17 04:07:43;;;;;;;19.13;9.27;;;;;;;6.63;97.12;102474.47;6110770;23;20009;-72
2023/05/17 04:10:09;;;;;;;22.13;9.60;;;;;;;6.64;96.79;102472.75;6134249;23;20012;-72
2023/05/17 04:12:34;;;;;;;19.73;9.18;;;;;;;6.63;97.39;102463.19;6135550;23;20016;-72
2023/05/17 04:15:00;;;;;;;19.75;9.30;;;;;;;6.64;97.12;102470.16;6110729;23;20013;-72
2023/05/17 04:17:26;;;;;;;22.88;9.88;;;;;;;6.59;98.13;102472.63;6110949;23;20068;-72
2023/05/17 04:19:52;;;;;;;22.50;9.70;;;;;;;6.64;97.97;102467.53;6135082;23;20005;-72
2023/05/17 04:22:19;;;;;;;19.92;9.65;;;;;;;6.67;98.08;102481.56;6134061;23;20450;-72
2023/05/17 04:24:44;;;;;;;21.77;9.80;;;;;;;6.70;97.92;102475.56;6158633;23;20070;-72
2023/05/17 04:27:10;;;;;;;19.13;9.90;;;;;;;6.72;97.43;102485.22;6110931;23;20091;-72
2023/05/17 04:29:36;;;;;;;20.83;10.48;;;;;;;6.80;98.09;102492.38;6107898;23;20063;-72
2023/05/17 04:32:01;;;;;;;18.13;9.13;;;;;;;6.78;98.46;102487.13;6133095;23;20116;-72
2023/05/17 04:34:27;;;;;;;18.27;9.25;;;;;;;6.82;98.22;102490.69;6108946;23;20015;-72
2023/05/17 04:36:52;;;;;;;19.98;9.25;;;;;;;6.84;98.48;102495.09;6133108;23;20095;-72
2023/05/17 04:39:19;;;;;;;22.83;9.38;;;;;;;6.85;98.62;102504.69;6108818;23;20415;-72
2023/05/17 04:41:45;;;;;;;23.73;9.65;;;;;;;6.89;98.71;102505.66;6157734;23;20001;-72
2023/05/17 04:44:10;;;;;;;18.48;9.65;;;;;;;6.90;98.64;102507.44;6158582;23;20343;-72
2023/05/17 04:46:36;;;;;;;20.52;9.52;;;;;;;6.96;98.81;102506.75;6134094;23;20011;-72
2023/05/17 04:49:02;;;;;;;19.83;9.82;;;;;;;7.02;98.87;102510.41;6133473;23;20009;-72
2023/05/17 04:51:28;;;;;;;23.80;10.30;;;;;;;7.08;98.67;102509.69;6109445;23;20427;-72
2023/05/17 04:53:53;;;;;;;23.65;9.48;;;;;;;7.13;98.98;102510.72;6132821;23;20021;-72
2023/05/17 04:56:19;;;;;;;20.60;9.52;;;;;;;7.19;98.61;102523.06;6107492;23;20016;-72
2023/05/17 04:58:44;;;;;;;18.25;9.18;;;;;;;7.24;98.35;102516.22;6107787;23;20013;-72
2023/05/17 05:01:10;;;;;;;23.92;10.05;;;;;;;7.43;99.40;102523.75;6107932;23;20431;-72
2023/05/17 05:03:36;;;;;;;18.63;9.45;;;;;;;7.63;99.61;102521.69;6108035;23;20039;-72
2023/05/17 05:06:02;;;;;;;17.25;9.27;;;;;;;7.61;98.71;102525.09;6132436;23;20013;-72
2023/05/17 05:08:28;;;;;;;17.35;8.77;;;;;;;7.80;98.60;102535.22;6133796;23;20103;-72
2023/05/17 05:10:54;;;;;;;21.85;10.18;;;;;;;7.93;98.64;102536.44;6158017;23;20036;-72
2023/05/17 05:13:21;;;;;;;23.65;9.10;;;;;;;8.19;98.49;102537.91;6132123;23;20013;-72
2023/05/17 05:15:47;;;;;;;22.35;9.88;;;;;;;8.38;98.61;102541.91;6157035;23;20071;-71
2023/05/17 05:18:12;;;;;;;19.17;8.93;;;;;;;8.65;98.09;102539.97;6133399;23;20012;-72
2023/05/17 05:20:37;;;;;;;20.17;9.15;;;;;;;8.78;97.42;102535.03;6108977;23;20091;-72
2023/05/17 05:23:04;;;;;;;19.13;9.52;;;;;;;9.09;97.48;102543.56;6108587;23;20040;-72
2023/05/17 05:25:30;;;;;;;20.85;9.70;;;;;;;9.46;97.77;102552.19;6131428;23;20012;-72
2023/05/17 05:27:56;;;;;;;18.70;9.30;;;;;;;9.56;95.92;102554.13;6132724;23;20032;-72
2023/05/17 05:30:21;;;;;;;20.65;9.40;;;;;;;9.85;95.06;102556.41;6131738;23;20043;-73
2023/05/17 05:32:51;;;;;;;18.33;8.10;;;;;;;9.95;94.14;102560.09;6108404;23;20087;-73
2023/05/17 05:35:17;;;;;;;19.77;7.93;;;;;;;10.21;92.97;102560.56;6183391;23;20062;-73
2023/05/17 05:37:43;;;;;;;20.00;7.80;;;;;;;10.34;92.19;102554.72;6133570;23;20009;-72
2023/05/17 05:40:10;;;;;;;20.30;7.65;;;;;;;10.65;92.13;102562.19;6132415;23;20104;-72
2023/05/17 05:42:36;;;;;;;22.05;6.95;;;;;;;10.90;90.58;102558.19;6157607;23;20008;-72
2023/05/17 05:45:01;;;;;;;17.92;6.80;;;;;;;11.02;88.31;102565.34;6156929;23;20335;-73
2023/05/17 05:47:27;;;;;;;19.17;6.72;;;;;;;11.24;87.40;102563.91;6108727;23;20458;-73
2023/05/17 05:49:52;;;;;;;17.58;6.55;;;;;;;11.43;85.38;102565.91;6108610;23;20384;-73
2023/05/17 05:52:18;;;;;;;19.95;6.35;;;;;;;11.51;81.98;102573.88;6132710;23;20095;-73
2023/05/17 05:54:44;;;;;;;17.63;5.65;;;;;;;11.69;83.30;102585.44;6131990;23;20506;-73
2023/05/17 05:57:09;;;;;;;17.13;6.57;;;;;;;11.75;81.69;102591.66;6133337;23;20020;-73
2023/05/17 05:59:36;;;;;;;13.50;5.38;;;;;;;12.09;81.76;102583.28;6132787;23;20491;-73
2023/05/17 06:02:01;;;;;;;14.45;5.00;;;;;;;12.12;80.00;102584.19;6108518;23;20009;-73
2023/05/17 06:04:27;;;;;;;16.25;5.65;;;;;;;12.50;79.76;102587.13;6131881;23;20347;-73
2023/05/17 06:06:55;;;;;;;16.45;5.00;;;;;;;12.52;77.85;102588.03;6132077;23;20059;-73
2023/05/17 06:09:21;;;;;;;14.18;5.10;;;;;;;12.88;76.76;102587.41;6107791;23;20009;-73
2023/05/17 06:11:46;;;;;;;18.85;5.60;;;;;;;13.00;74.66;102592.78;6132799;23;20020;-73
2023/05/17 06:14:12;;;;;;;16.40;5.53;;;;;;;13.16;74.97;102592.88;6108608;23;20091;-73
2023/05/17 06:16:40;;;;;;;15.95;4.80;;;;;;;13.31;72.54;102603.47;6156662;23;20009;-73
2023/05/17 06:19:06;;;;;;;14.82;4.43;;;;;;;13.38;70.62;102604.41;6132992;23;20408;-73
2023/05/17 06:21:31;;;;;;;14.40;4.78;;;;;;;13.63;69.49;102615.03;6156643;23;20008;-72
2023/05/17 06:23:56;;;;;;;14.55;3.80;;;;;;;13.80;67.99;102617.75;6133262;23;20009;-73
2023/05/17 06:26:22;;;;;;;14.10;4.28;;;;;;;13.89;68.51;102615.13;6130993;23;20013;-73
2023/05/17 06:28:47;;;;;;;13.20;4.10;;;;;;;13.97;66.88;102626.56;6108300;23;20016;-72
2023/05/17 06:31:13;;;;;;;12.88;4.00;;;;;;;14.18;64.08;102622.25;6133113;23;20501;-73
2023/05/17 06:33:38;;;;;;;20.15;4.50;;;;;;;14.04;65.12;102622.22;6157536;23;20021;-73
2023/05/17 06:36:04;;;;;;;10.35;3.42;;;;;;;14.00;61.17;102625.72;6107350;23;20013;-73
2023/05/17 06:38:29;;;;;;;12.50;3.17;;;;;;;13.85;61.71;102618.66;6106807;23;20005;-72
2023/05/17 06:40:56;;;;;;;14.60;4.20;;;;;;;13.74;63.50;102620.38;6129343;23;20008;-73
2023/05/17 06:43:21;;;;;;;13.25;3.90;;;;;;;13.57;62.90;102625.56;6132633;23;20009;-72
2023/05/17 06:45:47;;;;;;;14.32;3.88;;;;;;;13.60;64.64;102625.56;6131856;23;20106;-73
2023/05/17 06:48:12;;;;;;;12.95;3.67;;;;;;;13.84;65.87;102628.28;6107955;23;20020;-74
2023/05/17 06:50:38;;;;;;;10.23;3.08;;;;;;;13.59;60.02;102629.06;6107227;23;20023;-73
2023/05/17 06:53:03;;;;;;;13.70;3.33;;;;;;;13.60;60.71;102628.22;6107867;23;20044;-72
2023/05/17 06:55:29;;;;;;;16.45;3.30;;;;;;;13.72;62.01;102625.63;6131200;23;20025;-72
2023/05/17 06:57:54;;;;;;;16.42;3.40;;;;;;;13.62;62.72;102623.81;6107866;23;20009;-73
2023/05/17 07:00:20;;;;;;;11.60;2.78;;;;;;;13.72;60.35;102625.63;6132191;23;20008;-73
2023/05/17 07:02:46;;;;;;;12.32;3.00;;;;;;;13.69;62.10;102626.50;6132087;23;20012;-72
2023/05/17 07:05:12;;;;;;;17.40;3.47;;;;;;;13.55;60.57;102627.28;6132050;23;20016;-73
2023/05/17 07:07:37;;;;;;;11.35;2.63;;;;;;;13.37;60.02;102631.59;6131433;23;20009;-73
2023/05/17 07:10:04;;;;;;;14.73;3.40;;;;;;;13.62;60.56;102634.34;6130306;23;20005;-71
2023/05/17 07:12:30;;;;;;;14.82;2.90;;;;;;;13.26;58.96;102633.25;6156765;23;20025;-72
2023/05/17 07:14:55;;;;;;;14.48;2.85;;;;;;;13.12;59.72;102634.06;6132069;23;20067;-71
2023/05/17 07:17:20;;;;;;;16.45;4.13;;;;;;;12.95;61.04;102631.31;6107434;23;20012;-73
2023/05/17 07:19:49;;;;;;;9.77;2.92;;;;;;;13.00;59.11;102631.34;6154366;23;20005;-72
2023/05/17 07:22:16;;;;;;;17.40;3.30;;;;;;;12.92;61.12;102647.09;6109047;23;20310;-72
2023/05/17 07:24:43;;;;;;;11.40;2.70;;;;;;;12.98;61.04;102646.25;6132193;23;20788;-72
2023/05/17 07:27:08;;;;;;;11.75;2.90;;;;;;;12.76;61.71;102646.09;6132814;23;20465;-72
2023/05/17 07:29:34;;;;;;;12.07;3.35;;;;;;;12.98;63.06;102648.88;6107152;23;20096;-73
2023/05/17 07:32:00;;;;;;;14.73;3.60;;;;;;;13.16;59.45;102649.03;6131315;23;20088;-72
2023/05/17 07:34:26;;;;;;;12.00;2.67;;;;;;;13.09;59.79;102651.63;6131588;23;20040;-72
2023/05/17 07:36:51;;;;;;;11.73;2.90;;;;;;;13.36;58.58;102653.56;6132473;23;20008;-73
2023/05/17 07:39:17;;;;;;;10.02;2.63;;;;;;;13.41;59.10;102651.81;6131663;23;20012;-72
2023/05/17 07:41:42;;;;;;;13.63;3.28;;;;;;;13.40;59.35;102657.09;6107415;23;20075;-73
2023/05/17 07:44:08;;;;;;;11.70;2.50;;;;;;;13.25;58.03;102655.22;6107805;23;20020;-72
2023/05/17 07:46:34;;;;;;;11.23;2.50;;;;;;;13.11;58.75;102658.63;6107640;23;20009;-72
2023/05/17 07:49:00;;;;;;;15.18;2.88;;;;;;;13.04;59.74;102662.09;6107410;23;20427;-73
2023/05/17 07:51:25;;;;;;;15.90;3.50;;;;;;;13.12;60.03;102664.78;6130114;23;20009;-72
2023/05/17 07:53:51;;;;;;;13.27;2.83;;;;;;;12.99;57.94;102661.19;6156544;23;20052;-73
2023/05/17 07:56:16;;;;;;;14.70;2.83;;;;;;;13.01;58.46;102664.69;6131613;23;20149;-72
2023/05/17 07:58:42;;;;;;;13.77;2.83;;;;;;;13.17;60.73;102668.31;6131693;23;20016;-72
2023/05/17 08:01:08;;;;;;;16.33;3.10;;;;;;;13.45;61.98;102672.03;6132130;23;20009;-73
2023/05/17 08:03:35;;;;;;;15.82;2.90;;;;;;;13.58;59.16;102665.09;6107699;23;20016;-72
2023/05/17 08:06:00;;;;;;;10.70;2.80;;;;;;;13.62;59.28;102671.22;6107587;23;20434;-73
2023/05/17 08:08:25;;;;;;;13.82;2.85;;;;;;;13.62;59.43;102669.50;6107349;23;20005;-72
2023/05/17 08:10:51;;;;;;;14.07;2.67;;;;;;;13.64;58.30;102666.88;6108114;23;20009;-72
2023/05/17 08:13:16;;;;;;;12.75;2.53;;;;;;;13.69;58.08;102673.03;6108751;23;20016;-73
2023/05/17 08:15:42;;;;;;;17.35;3.10;;;;;;;13.98;59.14;102670.50;6109254;23;20013;-71
2023/05/17 08:18:07;;;;;;;9.52;2.40;;;;;;;14.17;57.33;102666.16;6134343;23;20463;-70
2023/05/17 08:20:33;;;;;;;10.65;2.20;;;;;;;14.03;55.29;102671.38;6133068;23;20071;-71
2023/05/17 08:22:58;;;;;;;10.40;2.55;;;;;;;14.10;58.39;102674.94;6131772;23;20392;-73
2023/05/17 08:25:24;;;;;;;9.70;2.65;;;;;;;13.94;56.57;102674.00;6132390;23;20009;-72
2023/05/17 08:27:50;;;;;;;13.25;2.67;;;;;;;13.78;54.94;102675.72;6133502;23;20016;-71
2023/05/17 08:30:16;;;;;;;11.38;2.50;;;;;;;13.48;56.38;102672.06;6133627;23;20021;-74
2023/05/17 08:32:41;;;;;;;11.32;2.20;;;;;;;13.25;56.34;102678.91;6133092;23;20323;-72
2023/05/17 08:35:07;;;;;;;10.73;2.70;;;;;;;13.35;57.60;102672.88;6133112;23;20009;-74
2023/05/17 08:37:32;;;;;;;14.68;2.95;;;;;;;13.32;55.90;102675.44;6157773;23;20059;-73
2023/05/17 08:39:58;;;;;;;14.05;3.40;;;;;;;13.55;58.25;102669.44;6132464;23;20347;-73
2023/05/17 08:42:26;;;;;;;10.43;2.40;;;;;;;13.74;57.05;102676.56;6133621;23;20008;-72
2023/05/17 08:44:53;;;;;;;13.20;2.38;;;;;;;13.83;53.59;102673.09;6131940;23;20064;-73
2023/05/17 08:47:30;;;;;;;8.98;2.30;;;;;;;14.03;53.99;102675.78;6158272;23;20558;-73
2023/05/17 08:49:59;;;;;;;12.48;3.00;;;;;;;14.15;56.27;102677.56;6133742;23;20021;-72
2023/05/17 08:52:28;;;;;;;10.45;2.67;;;;;;;14.25;55.78;102678.50;6134083;23;20032;-73
2023/05/17 08:54:54;;;;;;;15.95;3.03;;;;;;;14.09;53.38;102677.56;6156411;23;20021;-73
2023/05/17 08:57:23;;;;;;;13.13;3.15;;;;;;;13.93;53.13;102685.41;6133997;23;20016;-72
2023/05/17 08:59:50;;;;;;;10.80;2.72;;;;;;;13.60;53.99;102686.16;6158279;23;20020;-73
2023/05/17 09:02:16;;;;;;;14.18;3.05;;;;;;;13.37;55.57;102686.91;6134372;23;20084;-73
2023/05/17 09:04:42;;;;;;;10.07;2.08;;;;;;;13.25;55.15;102681.53;6108624;23;20095;-72
2023/05/17 09:07:07;;;;;;;9.98;2.40;;;;;;;13.17;55.86;102687.63;6108261;23;20008;-72
2023/05/17 09:09:33;;;;;;;12.57;2.17;;;;;;;13.37;53.87;102686.91;6133056;23;20009;-73
2023/05/17 09:12:01;;;;;;;10.02;2.08;;;;;;;13.66;55.91;102683.53;6133676;23;20020;-72
2023/05/17 09:14:33;;;;;;;8.88;2.10;;;;;;;13.68;55.95;102687.09;6133920;23;20085;-73
2023/05/17 09:17:00;;;;;;;14.60;2.65;;;;;;;13.71;53.70;102681.81;6133035;23;20116;-73
2023/05/17 09:19:25;;;;;;;9.02;1.77;;;;;;;13.52;54.63;102679.09;6109022;23;20767;-73
2023/05/17 09:21:53;;;;;;;8.10;2.08;;;;;;;13.38;53.98;102677.28;6108762;23;20000;-72
2023/05/17 09:24:27;;;;;;;9.40;2.03;;;;;;;13.46;55.19;102681.72;6157879;23;20458;-72
2023/05/17 09:26:52;;;;;;;7.70;1.83;;;;;;;13.30;52.99;102685.06;6132209;23;20017;-73
2023/05/17 09:29:18;;;;;;;9.25;2.85;;;;;;;13.41;54.43;102690.47;6109005;23;20410;-72
2023/05/17 09:31:43;;;;;;;11.10;2.55;;;;;;;13.48;54.44;102679.94;6131910;23;20005;-73
2023/05/17 09:34:09;;;;;;;11.35;2.55;;;;;;;13.55;53.19;102687.88;6158171;23;20016;-73
2023/05/17 09:36:41;;;;;;;11.30;2.40;;;;;;;13.33;53.54;102688.63;6133320;23;20008;-71
2023/05/17 09:39:10;;;;;;;7.50;1.67;;;;;;;13.34;55.43;102689.50;6156040;23;20009;-72
2023/05/17 09:41:45;;;;;;;9.93;1.80;;;;;;;13.57;55.66;102679.13;6133971;23;20011;-71
2023/05/17 09:44:12;;;;;;;9.90;2.28;;;;;;;13.69;54.13;102671.28;6133428;23;20016;-73
2023/05/17 09:46:43;;;;;;;9.57;2.25;;;;;;;13.69;53.65;102683.56;6133233;23;20012;-72
2023/05/17 09:49:09;;;;;;;10.95;2.00;;;;;;;13.64;52.80;102680.03;6133269;23;20016;-72
2023/05/17 09:51:36;;;;;;;7.47;2.22;;;;;;;13.52;53.22;102684.38;6108646;23;20359;-72
2023/05/17 09:54:02;;;;;;;8.05;1.90;;;;;;;13.47;53.81;102683.44;6132854;23;20079;-72
2023/05/17 09:56:29;;;;;;;10.60;2.63;;;;;;;13.60;55.37;102676.50;6157259;23;20103;-72
2023/05/17 09:58:55;;;;;;;10.40;2.17;;;;;;;13.76;57.79;102677.44;6156803;23;20015;-73
2023/05/17 10:01:24;;;;;;;15.20;3.72;;;;;;;13.96;56.32;102676.66;6157618;23;20101;-72
2023/05/17 10:03:50;;;;;;;9.35;2.55;;;;;;;13.90;54.68;102672.25;6157519;23;20039;-73
2023/05/17 10:06:19;;;;;;;8.57;2.08;;;;;;;14.03;56.61;102678.44;6107915;23;20009;-72
2023/05/17 10:08:48;;;;;;;12.60;2.60;;;;;;;13.95;55.92;102682.78;6133819;23;20076;-72
2023/05/17 10:11:14;;;;;;;8.85;2.10;;;;;;;13.97;55.55;102681.94;6132106;23;20063;-72
2023/05/17 10:13:46;;;;;;;10.20;2.22;;;;;;;13.94;55.65;102683.69;6109248;23;20029;-71
2023/05/17 10:16:12;;;;;;;11.55;1.98;;;;;;;13.99;55.95;102689.84;6157652;23;20005;-73
2023/05/17 10:18:39;;;;;;;6.97;2.10;;;;;;;14.04;53.66;102690.75;6145671;23;20015;-73
2023/05/17 10:21:06;;;;;;;7.80;1.92;;;;;;;14.14;53.44;102689.88;6153426;23;20424;-73
2023/05/17 10:23:33;;;;;;;9.43;1.95;;;;;;;14.37;51.47;102691.72;6155351;23;20001;-73
2023/05/17 10:26:00;;;;;;;9.45;1.80;;;;;;;14.39;51.30;102674.13;6153656;23;20021;-74
2023/05/17 10:28:27;;;;;;;9.65;2.20;;;;;;;14.19;50.02;102688.16;6131358;23;20166;-73
2023/05/17 10:30:53;;;;;;;6.68;1.65;;;;;;;14.22;47.22;102684.63;6132851;23;20044;-74
2023/05/17 10:33:20;;;;;;;7.72;1.65;;;;;;;14.29;50.66;102685.53;6156352;23;20008;-73
2023/05/17 10:35:50;;;;;;;9.20;2.00;;;;;;;14.40;49.67;102682.94;6156992;23;20016;-73
2023/05/17 10:38:17;;;;;;;9.90;2.37;;;;;;;14.25;49.01;102679.38;6157509;23;20008;-74
2023/05/17 10:40:43;;;;;;;8.05;1.90;;;;;;;14.28;50.73;102676.75;6156117;23;20001;-72
2023/05/17 10:43:11;;;;;;;7.38;2.30;;;;;;;14.38;48.52;102675.03;6133094;23;20056;-73
2023/05/17 10:45:37;;;;;;;7.68;2.15;;;;;;;14.51;50.42;102675.88;6133481;23;20013;-74
2023/05/17 10:48:07;;;;;;;9.45;1.70;;;;;;;14.36;48.35;102677.63;6132780;23;20037;-74
2023/05/17 10:50:37;;;;;;;8.82;2.25;;;;;;;14.33;49.19;102668.84;6132759;23;20304;-75
2023/05/17 10:53:10;;;;;;;7.85;1.90;;;;;;;14.31;49.79;102671.47;6155551;23;20025;-74
2023/05/17 10:55:42;;;;;;;7.30;1.83;;;;;;;14.27;49.39;102666.22;6156237;23;20102;-73
2023/05/17 10:58:14;;;;;;;7.30;1.73;;;;;;;14.27;49.34;102664.44;6133356;23;20144;-74
2023/05/17 11:00:42;;;;;;;8.45;1.80;;;;;;;14.48;49.74;102650.41;6156628;23;20009;-73
2023/05/17 11:03:18;;;;;;;6.63;1.77;;;;;;;14.52;48.11;102665.38;6156787;23;20135;-72
2023/05/17 11:06:11;;;;;;;7.45;1.95;;;;;;;14.67;49.77;102655.72;6156582;23;20012;-73
2023/05/17 11:08:46;;;;;;;8.35;2.10;;;;;;;14.76;50.02;102654.84;6157493;23;20012;-73
2023/05/17 11:11:19;;;;;;;5.43;2.20;;;;;;;14.91;49.09;102662.72;6155777;23;20008;-73
2023/05/17 11:13:53;;;;;;;8.52;2.55;;;;;;;15.00;49.22;102660.09;6157195;23;20355;-72
2023/05/17 11:16:33;;;;;;;9.38;2.22;;;;;;;15.14;49.59;102662.72;6157032;23;20008;-73
2023/05/17 11:19:10;;;;;;;9.07;2.10;;;;;;;15.18;50.20;102648.63;6156820;23;20019;-77
2023/05/17 11:21:46;;;;;;;8.00;1.80;;;;;;;14.83;48.07;102667.16;6156616;23;20079;-78
2023/05/17 11:24:19;;;;;;;9.48;2.10;;;;;;;14.72;49.97;102668.06;6156154;23;20070;-73
2023/05/17 11:26:45;;;;;;;7.55;1.77;;;;;;;14.75;47.60;102664.50;6156710;23;20044;-73
2023/05/17 11:29:11;;;;;;;7.32;1.60;;;;;;;14.73;48.63;102650.44;6132501;23;20084;-73
2023/05/17 11:31:42;;;;;;;8.18;1.80;;;;;;;14.83;49.02;102656.59;6132667;23;20342;-73
2023/05/17 11:34:08;;;;;;;8.88;2.00;;;;;;;14.81;48.78;102656.59;6156525;23;20144;-74
2023/05/17 11:36:55;;;;;;;9.93;2.42;;;;;;;14.73;48.82;102666.28;6132171;23;20048;-74
2023/05/17 11:39:22;;;;;;;8.15;2.15;;;;;;;14.82;47.28;102660.97;6156772;23;20070;-74
2023/05/17 11:41:52;;;;;;;7.45;1.90;;;;;;;14.91;48.32;102657.44;6158596;23;20420;-75
2023/05/17 11:44:24;;;;;;;;;;;;;;;15.07;46.10;102653.06;6159521;23;20447;-72
2023/05/17 11:46:50;;;;;;;8.20;1.90;;;;;;;14.99;47.80;102653.06;6158404;23;19955;-73
2023/05/17 11:49:15;;;;;;;7.28;2.15;;;;;;;15.08;46.75;102660.06;6110330;23;20032;-74
2023/05/17 11:51:41;;;;;;;7.15;1.50;;;;;;;15.27;46.06;102646.84;6134206;23;20012;-73
2023/05/17 11:54:10;;;;;;;9.18;1.70;;;;;;;15.24;46.31;102653.00;6110062;23;20040;-74
2023/05/17 11:56:35;;;;;;;9.52;1.98;;;;;;;15.14;47.26;102653.91;6158697;23;20015;-74
2023/05/17 11:59:02;;;;;;;8.25;1.70;;;;;;;15.30;46.23;102649.47;6134944;23;20384;-73
2023/05/17 12:01:40;;;;;;;6.00;1.55;;;;;;;15.27;44.46;102657.41;6135162;23;20036;-74
2023/05/17 12:04:06;;;;;;;7.57;1.73;;;;;;;15.36;44.86;102654.75;6158899;23;20053;-72
2023/05/17 12:06:34;;;;;;;5.90;1.58;;;;;;;15.49;46.43;102656.47;6132978;23;20023;-74
2023/05/17 12:09:00;;;;;;;6.35;2.20;;;;;;;15.69;44.53;102652.88;6134860;23;20017;-74
2023/05/17 12:11:26;;;;;;;5.38;1.75;;;;;;;15.51;44.12;102656.47;6133171;23;20009;-72
2023/05/17 12:13:52;;;;;;;5.43;1.60;;;;;;;15.56;42.44;102645.00;6134175;23;20424;-73
2023/05/17 12:16:21;;;;;;;6.30;1.58;;;;;;;15.73;45.55;102659.88;6109607;23;20005;-74
2023/05/17 12:18:49;;;;;;;11.55;2.15;;;;;;;15.95;46.38;102658.06;6158612;23;20009;-74
2023/05/17 12:21:16;;;;;;;10.10;1.95;;;;;;;16.09;44.06;102650.03;6158539;23;20008;-72
2023/05/17 12:23:44;;;;;;;5.63;1.40;;;;;;;16.03;43.90;102644.81;6158938;23;20012;-73
2023/05/17 12:26:13;;;;;;;5.22;1.20;;;;;;;16.15;39.41;102647.38;6157671;23;20075;-74
2023/05/17 12:28:40;;;;;;;8.30;1.50;;;;;;;15.99;42.15;102648.34;6110199;23;20021;-72
2023/05/17 12:31:10;;;;;;;4.72;1.73;;;;;;;15.89;44.98;102648.41;6133469;23;20016;-73
2023/05/17 12:33:39;;;;;;;9.93;1.88;;;;;;;15.94;45.37;102646.59;6157990;23;20009;-74
2023/05/17 12:36:10;;;;;;;6.60;1.60;;;;;;;16.06;43.25;102650.06;6156416;23;20009;-74
2023/05/17 12:38:38;;;;;;;6.32;1.73;;;;;;;16.22;40.77;102651.75;6157400;23;20039;-74
2023/05/17 12:41:05;;;;;;;5.85;1.63;;;;;;;16.31;41.10;102644.63;6131739;23;20009;-78
2023/05/17 12:43:35;;;;;;;9.38;1.60;;;;;;;16.20;43.96;102647.34;6132343;23;20098;-78
2023/05/17 12:46:04;;;;;;;;;;;;;;;16.35;43.25;102652.53;6157317;23;20005;-77
2023/05/17 12:48:33;;;;;;;6.88;1.58;;;;;;;16.22;42.96;102657.03;6158308;23;20095;-76
2023/05/17 12:51:08;;;;;;;8.48;1.80;;;;;;;16.29;41.58;102647.28;6133641;23;20041;-77
2023/05/17 12:53:38;;;;;;;5.22;1.50;;;;;;;16.28;43.33;102651.69;6158689;23;20075;-77
2023/05/17 12:56:04;;;;;;;5.70;1.55;;;;;;;16.23;42.47;102658.81;6158390;23;20032;-77
2023/05/17 12:58:31;;;;;;;9.60;1.67;;;;;;;16.39;43.88;102649.00;6134287;23;20013;-79
2023/05/17 13:01:01;;;;;;;5.45;1.52;;;;;;;16.31;42.68;102655.22;6109459;23;20016;-78
2023/05/17 13:03:27;;;;;;;8.02;1.65;;;;;;;16.45;44.11;102648.06;6110041;23;20017;-77
2023/05/17 13:06:01;;;;;;;6.93;1.75;;;;;;;16.40;43.32;102645.44;6108429;23;20017;-76
2023/05/17 13:08:30;;;;;;;5.15;1.50;;;;;;;16.44;42.00;102641.00;6158348;23;20012;-77
2023/05/17 13:11:14;;;;;;;8.55;2.28;;;;;;;16.65;43.06;102639.97;6131535;23;20068;-78
2023/05/17 13:13:40;;;;;;;12.52;2.15;;;;;;;16.66;42.96;102635.53;6109798;23;20013;-76
2023/05/17 13:16:06;;;;;;;5.43;1.70;;;;;;;16.68;43.93;102633.75;6133950;23;20019;-76
2023/05/17 13:18:51;;;;;;;5.45;1.30;;;;;;;16.65;42.82;102639.06;6108694;23;20088;-80
2023/05/17 13:21:18;;;;;;;8.90;1.83;;;;;;;16.54;41.07;102625.94;6133158;23;20430;-77
2023/05/17 13:23:48;;;;;;;5.60;1.63;;;;;;;16.52;43.34;102628.59;6133719;23;20063;-77
2023/05/17 13:26:15;;;;;;;5.60;1.63;;;;;;;16.56;43.16;102635.59;6133256;23;20091;-77
2023/05/17 13:28:41;;;;;;;6.47;1.75;;;;;;;16.49;40.55;102644.47;6134450;23;20013;-77
2023/05/17 13:31:06;;;;;;;9.27;1.88;;;;;;;16.67;38.05;102638.16;6133423;23;20020;-79
2023/05/17 13:33:32;;;;;;;6.88;1.65;;;;;;;16.62;37.74;102632.94;6109702;23;20101;-78
2023/05/17 13:35:57;;;;;;;8.70;1.95;;;;;;;16.68;41.21;102628.44;6158082;23;20013;-76
2023/05/17 13:38:23;;;;;;;7.00;1.75;;;;;;;16.75;42.78;102624.84;6109740;23;20008;-77
2023/05/17 13:40:49;;;;;;;7.68;1.98;;;;;;;16.67;42.14;102621.44;6156922;23;20005;-77
2023/05/17 13:43:15;;;;;;;8.35;1.73;;;;;;;16.81;43.01;102616.88;6158413;23;20024;-77
2023/05/17 13:45:40;;;;;;;8.48;2.10;;;;;;;16.69;42.90;102617.84;6158543;23;20427;-77
2023/05/17 13:48:06;;;;;;;6.75;1.90;;;;;;;16.51;41.18;102610.97;6133994;23;20012;-77
2023/05/17 13:50:31;;;;;;;11.93;1.60;;;;;;;16.50;41.04;102614.50;6109246;23;20017;-79
2023/05/17 13:52:57;;;;;;;11.98;1.92;;;;;;;16.57;42.56;102616.19;6108728;23;20491;-78
2023/05/17 13:55:25;;;;;;;9.75;1.77;;;;;;;16.49;39.50;102612.72;6158024;23;20424;-77
2023/05/17 13:57:51;;;;;;;8.20;1.83;;;;;;;16.47;42.04;102617.16;6158200;23;20005;-79
2023/05/17 14:00:17;;;;;;;6.43;2.10;;;;;;;16.38;42.56;102625.19;6133904;23;20019;-76
2023/05/17 14:02:42;;;;;;;6.10;1.45;;;;;;;16.48;43.47;102621.56;6108850;23;20008;-77
2023/05/17 14:05:09;;;;;;;9.27;1.92;;;;;;;16.43;43.02;102620.72;6109036;23;20339;-78
2023/05/17 14:07:40;;;;;;;7.32;2.13;;;;;;;16.30;42.42;102627.00;6133757;23;20009;-77
2023/05/17 14:10:07;;;;;;;9.32;1.73;;;;;;;16.36;41.40;102619.00;6134236;23;20013;-77
2023/05/17 14:12:33;;;;;;;9.68;2.45;;;;;;;16.30;39.59;102619.06;6133059;23;20009;-76
2023/05/17 14:14:58;;;;;;;10.13;2.30;;;;;;;16.24;42.77;102623.50;6133479;23;20032;-78